SBPV/PVH METAR and TAF weather

Enter ICAO airport designator
Station Type Date Time Source
SBPV METAR 2022/06/29 00:00 UTC NOAA

SBPV 290000Z 00000KT CAVOK 24/19 Q1013


Station Type Date Time Source
SBPV Decoded METAR 2022/06/29 00:00 UTC NOAA

Porto Velho Aeroporto , Brazil (SBPV) 08-46S 063-55W 102M
Jun 28, 2022 - 08:00 PM EDT / 2022.06.29 0000 UTC
Wind: Calm:0
Visibility: greater than 7 mile(s):0
Temperature: 75 F (24 C)
Dew Point: 66 F (19 C)
Relative Humidity: 73%
Pressure (altimeter): 29.91 in. Hg (1013 hPa)
ob: SBPV 290000Z 00000KT CAVOK 24/19 Q1013
cycle: 0

Station Type Date Time Source
SBPV TAF 2022/06/28 18:03 UTC NOAA

TAF SBPV 281500Z 2818/2918 11005KT 9999 FEW040 TX33/2818Z TN21/2907Z
BECMG 2822/2824 04005KT CAVOK
BECMG 2901/2903 00000KT
BECMG 2907/2909 18005KT
BECMG 2913/2915 14010KT
BECMG 2916/2918 11005KT FEW040
RMK PHD

Example: see airport list